createdAt,value
2023-04-13T00:00:12.366Z,77.40
2023-04-13T00:01:12.512Z,77.30
2023-04-13T00:02:12.759Z,77.03
2023-04-13T00:03:13.128Z,77.55
2023-04-13T00:04:13.072Z,77.64
2023-04-13T00:05:13.235Z,77.55
2023-04-13T00:06:13.408Z,78.05
2023-04-13T00:07:13.580Z,77.85
2023-04-13T00:08:13.747Z,78.05
2023-04-13T00:09:13.939Z,77.44
2023-04-13T00:10:14.097Z,77.34
2023-04-13T00:11:14.275Z,77.14
2023-04-13T00:12:14.437Z,77.24
2023-04-13T00:13:14.661Z,77.64
2023-04-13T00:14:14.774Z,77.55
2023-04-13T00:15:14.943Z,77.44
2023-04-13T00:16:15.143Z,77.68
2023-04-13T00:17:15.279Z,76.76
2023-04-13T00:18:15.470Z,77.27
2023-04-13T00:19:15.638Z,77.68
2023-04-13T00:20:15.804Z,77.89
2023-04-13T00:21:15.989Z,77.89
2023-04-13T00:22:16.160Z,77.37
2023-04-13T00:23:16.332Z,77.68
2023-04-13T00:24:16.508Z,77.98
2023-04-13T00:25:16.688Z,78.30
2023-04-13T00:26:16.862Z,78.19
2023-04-13T00:27:17.035Z,78.09
2023-04-13T00:28:17.222Z,78.02
2023-04-13T00:29:17.378Z,78.23
2023-04-13T00:30:17.554Z,78.02
2023-04-13T00:31:17.752Z,77.51
2023-04-13T00:32:17.899Z,78.23
2023-04-13T00:33:18.129Z,78.12
2023-04-13T00:34:18.242Z,77.72
2023-04-13T00:35:18.414Z,77.82
2023-04-13T00:36:18.576Z,77.72
2023-04-13T00:37:18.769Z,77.86
2023-04-13T00:38:18.964Z,77.45
2023-04-13T00:39:19.113Z,77.65
2023-04-13T00:40:19.301Z,77.75
2023-04-13T00:41:19.454Z,77.96
2023-04-13T00:42:19.610Z,77.75
2023-04-13T00:43:19.791Z,78.16
2023-04-13T00:44:19.969Z,77.34
2023-04-13T00:45:20.122Z,77.25
2023-04-13T00:46:20.340Z,77.65
2023-04-13T00:47:20.499Z,77.96
2023-04-13T00:48:20.646Z,77.96
2023-04-13T00:49:20.822Z,77.55
2023-04-13T00:50:21.254Z,77.79
2023-04-13T00:51:21.149Z,77.89
2023-04-13T00:52:21.342Z,77.59
2023-04-13T00:53:21.520Z,77.18
2023-04-13T00:54:21.665Z,77.48
2023-04-13T00:55:22.067Z,78.00
2023-04-13T00:56:21.995Z,77.59
2023-04-13T00:57:22.163Z,77.89
2023-04-13T00:58:22.380Z,77.38
2023-04-13T00:59:22.545Z,77.79
2023-04-13T01:00:22.713Z,77.38
2023-04-13T01:01:22.939Z,77.59
2023-04-13T01:02:23.165Z,77.89
2023-04-13T01:03:23.269Z,77.89
2023-04-13T01:04:23.483Z,78.30
2023-04-13T01:05:23.579Z,78.09
2023-04-13T01:06:23.742Z,78.20
2023-04-13T01:07:23.903Z,78.71
2023-04-13T01:08:24.083Z,78.61
2023-04-13T01:09:24.231Z,78.71
2023-04-13T01:10:24.411Z,78.71
2023-04-13T01:11:24.604Z,78.30
2023-04-13T01:12:24.771Z,78.71
2023-04-13T01:13:24.932Z,78.50
2023-04-13T01:14:25.098Z,78.20
2023-04-13T01:15:25.260Z,78.13
2023-04-13T01:16:25.529Z,78.30
2023-04-13T01:17:25.598Z,78.44
2023-04-13T01:18:25.787Z,78.03
2023-04-13T01:19:25.968Z,78.03
2023-04-13T01:20:26.161Z,77.93
2023-04-13T01:21:26.427Z,77.62
2023-04-13T01:22:26.514Z,77.72
2023-04-13T01:23:26.684Z,77.31
2023-04-13T01:24:26.864Z,77.52
2023-04-13T01:25:27.032Z,77.42
2023-04-13T01:26:27.206Z,77.42
2023-04-13T01:27:27.400Z,77.11
2023-04-13T01:28:27.570Z,77.22
2023-04-13T01:29:27.755Z,77.22
2023-04-13T01:30:27.919Z,77.11
2023-04-13T01:31:28.133Z,77.11
2023-04-13T01:32:28.308Z,77.01
2023-04-13T01:33:28.436Z,77.31
2023-04-13T01:34:28.604Z,77.15
2023-04-13T01:35:28.771Z,77.04
2023-04-13T01:36:28.948Z,76.94
2023-04-13T01:37:29.125Z,76.64
2023-04-13T01:38:29.305Z,76.84
2023-04-13T01:39:29.466Z,76.84
2023-04-13T01:40:29.664Z,76.33
2023-04-13T01:41:29.832Z,76.33
2023-04-13T01:42:30.017Z,76.74
2023-04-13T01:43:30.208Z,76.98
2023-04-13T01:44:30.338Z,76.67
2023-04-13T01:45:30.499Z,76.98
2023-04-13T01:46:30.717Z,77.39
2023-04-13T01:47:30.989Z,77.19
2023-04-13T01:48:31.014Z,77.39
2023-04-13T01:49:31.192Z,76.88
2023-04-13T01:50:31.410Z,76.98
2023-04-13T01:51:31.524Z,76.78
2023-04-13T01:52:31.697Z,77.08
2023-04-13T01:53:31.873Z,76.98
2023-04-13T01:54:32.046Z,76.47
2023-04-13T01:55:32.206Z,76.78
2023-04-13T01:56:32.394Z,76.78
2023-04-13T01:57:32.570Z,76.71
2023-04-13T01:58:32.768Z,77.12
2023-04-13T01:59:32.931Z,77.22
2023-04-13T02:00:33.207Z,77.12
2023-04-13T02:01:33.270Z,77.32
2023-04-13T02:02:33.561Z,76.61
2023-04-13T02:03:33.647Z,76.91
2023-04-13T02:04:33.777Z,76.50
2023-04-13T02:05:33.932Z,76.50
2023-04-13T02:06:34.144Z,76.40
2023-04-13T02:07:34.286Z,77.12
2023-04-13T02:08:34.463Z,76.61
2023-04-13T02:09:34.622Z,76.20
2023-04-13T02:10:34.828Z,76.71
2023-04-13T02:11:35.053Z,77.01
2023-04-13T02:12:35.152Z,76.81
2023-04-13T02:13:35.321Z,76.91
2023-04-13T02:14:35.489Z,75.68
2023-04-13T02:15:35.677Z,77.01
2023-04-13T02:16:35.871Z,77.22
2023-04-13T02:17:36.044Z,76.71
2023-04-13T02:18:36.189Z,76.20
2023-04-13T02:19:36.339Z,75.79
2023-04-13T02:20:36.508Z,76.81
2023-04-13T02:21:36.695Z,76.09
2023-04-13T02:22:36.873Z,76.61
2023-04-13T02:23:37.031Z,76.09
2023-04-13T02:24:37.199Z,76.09
2023-04-13T02:25:37.357Z,76.30
2023-04-13T02:26:37.549Z,76.40
2023-04-13T02:27:37.701Z,76.40
2023-04-13T02:28:37.859Z,76.30
2023-04-13T02:29:38.048Z,76.50
2023-04-13T02:30:38.204Z,76.61
2023-04-13T02:31:38.408Z,76.71
2023-04-13T02:32:38.555Z,75.59
2023-04-13T02:33:38.716Z,75.59
2023-04-13T02:34:38.882Z,76.40
2023-04-13T02:35:39.109Z,76.09
2023-04-13T02:36:39.263Z,76.50
2023-04-13T02:37:39.420Z,76.50
2023-04-13T02:38:39.593Z,76.09
2023-04-13T02:39:39.754Z,75.59
2023-04-13T02:40:39.915Z,75.93
2023-04-13T02:41:40.104Z,75.82
2023-04-13T02:42:40.273Z,75.10
2023-04-13T02:43:40.432Z,75.62
2023-04-13T02:44:40.609Z,75.42
2023-04-13T02:45:40.833Z,74.69
2023-04-13T02:46:40.980Z,75.31
2023-04-13T02:47:41.153Z,76.23
2023-04-13T02:48:41.290Z,75.10
2023-04-13T02:49:41.458Z,75.21
2023-04-13T02:50:41.618Z,74.90
2023-04-13T02:51:41.792Z,75.72
2023-04-13T02:52:41.989Z,75.01
2023-04-13T02:53:42.159Z,75.86
2023-04-13T02:54:42.313Z,76.57
2023-04-13T02:55:42.480Z,75.86
2023-04-13T02:56:42.644Z,75.35
2023-04-13T02:57:42.840Z,74.84
2023-04-13T02:58:43.000Z,75.96
2023-04-13T02:59:43.183Z,75.24
2023-04-13T03:00:43.336Z,74.32
2023-04-13T03:01:43.562Z,75.04
2023-04-13T03:02:43.802Z,75.07
2023-04-13T03:03:43.861Z,75.55
2023-04-13T03:04:44.056Z,74.97
2023-04-13T03:05:44.215Z,75.48
2023-04-13T03:06:44.407Z,75.18
2023-04-13T03:07:44.578Z,76.40
2023-04-13T03:08:44.741Z,75.79
2023-04-13T03:09:44.906Z,75.18
2023-04-13T03:10:45.063Z,76.20
2023-04-13T03:11:45.253Z,75.89
2023-04-13T03:12:45.416Z,75.79
2023-04-13T03:13:45.580Z,75.48
2023-04-13T03:14:45.744Z,75.79
2023-04-13T03:15:45.906Z,75.38
2023-04-13T03:16:46.106Z,75.99
2023-04-13T03:17:46.302Z,75.38
2023-04-13T03:18:46.437Z,75.18
2023-04-13T03:19:46.603Z,75.38
2023-04-13T03:20:46.761Z,75.89
2023-04-13T03:21:46.930Z,75.99
2023-04-13T03:22:47.090Z,75.59
2023-04-13T03:23:47.254Z,75.18
2023-04-13T03:24:47.426Z,74.77
2023-04-13T03:25:47.585Z,75.18
2023-04-13T03:26:47.774Z,75.38
2023-04-13T03:27:47.936Z,75.99
2023-04-13T03:28:48.103Z,76.10
2023-04-13T03:29:48.260Z,75.59
2023-04-13T03:30:48.478Z,76.57
2023-04-13T03:31:48.644Z,75.86
2023-04-13T03:32:48.874Z,75.65
2023-04-13T03:33:48.960Z,75.86
2023-04-13T03:34:49.161Z,75.14
2023-04-13T03:35:49.341Z,75.96
2023-04-13T03:36:49.499Z,76.17
2023-04-13T03:37:49.700Z,76.47
2023-04-13T03:38:49.823Z,75.35
2023-04-13T03:39:50.019Z,76.37
2023-04-13T03:40:50.179Z,76.27
2023-04-13T03:41:50.347Z,76.37
2023-04-13T03:42:50.509Z,76.37
2023-04-13T03:43:50.669Z,76.17
2023-04-13T03:44:50.839Z,75.96
2023-04-13T03:45:51.020Z,76.27
2023-04-13T03:46:51.195Z,75.65
2023-04-13T03:47:51.381Z,75.35
2023-04-13T03:48:51.522Z,76.06
2023-04-13T03:49:51.668Z,75.65
2023-04-13T03:50:51.850Z,76.37
2023-04-13T03:51:52.020Z,76.17
2023-04-13T03:52:52.186Z,76.06
2023-04-13T03:53:52.354Z,76.27
2023-04-13T03:54:52.573Z,76.37
2023-04-13T03:55:52.716Z,76.06
2023-04-13T03:56:52.875Z,75.82
2023-04-13T03:57:53.081Z,75.72
2023-04-13T03:58:53.270Z,75.76
2023-04-13T03:59:53.360Z,76.03
2023-04-13T04:00:53.557Z,76.23
2023-04-13T04:01:53.748Z,75.82
2023-04-13T04:02:53.967Z,75.72
2023-04-13T04:03:54.121Z,75.86
2023-04-13T04:04:54.263Z,75.14
2023-04-13T04:05:54.373Z,74.94
2023-04-13T04:06:54.538Z,74.43
2023-04-13T04:07:54.697Z,74.63
2023-04-13T04:08:54.878Z,74.22
2023-04-13T04:09:55.095Z,74.43
2023-04-13T04:10:55.250Z,74.02
2023-04-13T04:11:55.397Z,74.73
2023-04-13T04:12:55.588Z,74.84
2023-04-13T04:13:55.783Z,74.94
2023-04-13T04:14:55.963Z,75.24
2023-04-13T04:15:56.153Z,74.43
2023-04-13T04:16:56.292Z,74.43
2023-04-13T04:17:56.513Z,74.53
2023-04-13T04:18:56.645Z,74.53
2023-04-13T04:19:56.802Z,75.65
2023-04-13T04:20:56.977Z,75.35
2023-04-13T04:21:57.124Z,75.55
2023-04-13T04:22:57.293Z,75.14
2023-04-13T04:23:57.671Z,74.63
2023-04-13T04:24:57.670Z,75.14
2023-04-13T04:25:57.823Z,74.43
2023-04-13T04:26:57.996Z,74.73
2023-04-13T04:27:58.161Z,74.32
2023-04-13T04:28:58.322Z,74.32
2023-04-13T04:29:58.511Z,74.94
2023-04-13T04:30:58.670Z,75.65
2023-04-13T04:31:58.862Z,75.55
2023-04-13T04:32:59.060Z,75.35
2023-04-13T04:33:59.297Z,75.65
2023-04-13T04:34:59.356Z,74.84
2023-04-13T04:35:59.501Z,74.73
2023-04-13T04:37:03.280Z,74.73
2023-04-13T04:37:59.822Z,75.35
2023-04-13T04:39:00.004Z,75.76
2023-04-13T04:40:00.366Z,75.24
2023-04-13T04:41:00.369Z,75.45
2023-04-13T04:42:00.521Z,75.55
2023-04-13T04:43:00.715Z,75.24
2023-04-13T04:44:01.015Z,75.14
2023-04-13T04:45:01.078Z,75.35
2023-04-13T04:46:01.286Z,74.73
2023-04-13T04:47:01.423Z,75.01
2023-04-13T04:48:01.653Z,74.90
2023-04-13T04:49:01.801Z,74.90
2023-04-13T04:50:02.006Z,74.80
2023-04-13T04:51:02.149Z,74.49
2023-04-13T04:52:02.333Z,74.29
2023-04-13T04:53:02.529Z,74.60
2023-04-13T04:54:02.673Z,74.39
2023-04-13T04:55:02.860Z,74.60
2023-04-13T04:56:03.001Z,74.60
2023-04-13T04:57:03.177Z,74.69
2023-04-13T04:58:03.416Z,74.29
2023-04-13T04:59:03.553Z,74.49
2023-04-13T05:00:03.765Z,74.60
2023-04-13T05:01:03.982Z,74.39
2023-04-13T05:02:04.111Z,74.19
2023-04-13T05:03:04.322Z,74.15
2023-04-13T05:04:04.465Z,73.64
2023-04-13T05:05:04.675Z,73.94
2023-04-13T05:06:04.793Z,74.35
2023-04-13T05:07:04.980Z,73.03
2023-04-13T05:08:05.156Z,72.72
2023-04-13T05:09:05.335Z,73.54
2023-04-13T05:10:05.542Z,72.92
2023-04-13T05:11:05.684Z,72.21
2023-04-13T05:12:05.862Z,72.52
2023-04-13T05:13:06.050Z,72.00
2023-04-13T05:14:06.255Z,71.70
2023-04-13T05:15:06.422Z,71.59
2023-04-13T05:16:06.638Z,72.11
2023-04-13T05:17:06.777Z,73.33
2023-04-13T05:18:06.979Z,74.05
2023-04-13T05:19:07.113Z,73.54
2023-04-13T05:20:07.345Z,73.10
2023-04-13T05:21:07.485Z,72.38
2023-04-13T05:22:07.631Z,72.07
2023-04-13T05:23:07.820Z,71.87
2023-04-13T05:24:08.004Z,71.87
2023-04-13T05:25:08.183Z,72.07
2023-04-13T05:26:08.342Z,72.48
2023-04-13T05:27:08.510Z,72.79
2023-04-13T05:28:08.689Z,72.38
2023-04-13T05:29:08.862Z,71.46
2023-04-13T05:30:09.067Z,71.05
2023-04-13T05:31:09.289Z,71.56
2023-04-13T05:32:09.375Z,72.17
2023-04-13T05:33:09.551Z,72.89
2023-04-13T05:34:09.740Z,71.87
2023-04-13T05:35:09.937Z,72.28
2023-04-13T05:36:10.079Z,72.99
2023-04-13T05:37:10.217Z,73.27
2023-04-13T05:38:10.411Z,72.04
2023-04-13T05:39:10.563Z,71.53
2023-04-13T05:40:10.765Z,72.34
2023-04-13T05:41:10.917Z,72.45
2023-04-13T05:42:11.095Z,71.53
2023-04-13T05:43:11.271Z,72.24
2023-04-13T05:44:11.450Z,71.63
2023-04-13T05:45:11.653Z,71.53
2023-04-13T05:46:11.876Z,72.45
2023-04-13T05:47:12.006Z,71.22
2023-04-13T05:48:12.179Z,72.04
2023-04-13T05:49:12.369Z,72.75
2023-04-13T05:50:12.578Z,72.04
2023-04-13T05:51:12.714Z,71.91
2023-04-13T05:52:12.912Z,72.62
2023-04-13T05:53:13.072Z,72.11
2023-04-13T05:54:13.232Z,71.15
2023-04-13T05:55:13.407Z,70.44
2023-04-13T05:56:13.578Z,71.26
2023-04-13T05:57:13.760Z,70.14
2023-04-13T05:58:13.930Z,70.44
2023-04-13T05:59:14.109Z,70.44
2023-04-13T06:00:14.316Z,70.40
2023-04-13T06:01:14.473Z,69.49
2023-04-13T06:02:14.734Z,70.72
2023-04-13T06:03:14.957Z,70.40
2023-04-13T06:04:15.102Z,70.10
2023-04-13T06:05:15.212Z,70.57
2023-04-13T06:06:15.345Z,70.78
2023-04-13T06:07:15.495Z,71.09
2023-04-13T06:08:15.676Z,71.19
2023-04-13T06:09:15.842Z,68.30
2023-04-13T06:10:16.019Z,69.02
2023-04-13T06:11:16.165Z,70.14
2023-04-13T06:12:16.342Z,68.81
2023-04-13T06:13:16.521Z,68.71
2023-04-13T06:14:16.697Z,68.48
2023-04-13T06:15:16.924Z,67.96
2023-04-13T06:16:17.099Z,68.27
2023-04-13T06:17:17.244Z,68.54
2023-04-13T06:18:17.414Z,67.73
2023-04-13T06:19:17.571Z,68.04
2023-04-13T06:20:17.758Z,66.10
2023-04-13T06:21:17.902Z,66.41
2023-04-13T06:22:18.097Z,66.71
2023-04-13T06:23:18.234Z,66.61
2023-04-13T06:24:18.415Z,65.69
2023-04-13T06:25:18.629Z,66.41
2023-04-13T06:26:18.764Z,67.93
2023-04-13T06:27:18.908Z,66.82
2023-04-13T06:28:19.093Z,67.80
2023-04-13T06:29:19.304Z,66.47
2023-04-13T06:30:19.507Z,66.99
2023-04-13T06:31:19.664Z,65.77
2023-04-13T06:32:19.833Z,66.88
2023-04-13T06:33:19.985Z,67.36
2023-04-13T06:34:20.200Z,65.83
2023-04-13T06:35:20.376Z,64.81
2023-04-13T06:36:20.564Z,65.12
2023-04-13T06:37:20.709Z,65.33
2023-04-13T06:38:20.891Z,66.04
2023-04-13T06:39:21.070Z,64.81
2023-04-13T06:40:21.269Z,64.69
2023-04-13T06:41:21.412Z,65.39
2023-04-13T06:42:21.590Z,64.18
2023-04-13T06:43:29.196Z,65.19
2023-04-13T06:44:22.977Z,65.19
2023-04-13T06:45:22.117Z,64.07
2023-04-13T06:46:22.312Z,63.97
2023-04-13T06:47:22.500Z,63.57
2023-04-13T06:48:22.663Z,63.67
2023-04-13T06:49:22.849Z,64.45
2023-04-13T06:50:22.997Z,64.45
2023-04-13T06:51:23.191Z,64.15
2023-04-13T06:52:23.358Z,63.54
2023-04-13T06:53:23.537Z,63.33
2023-04-13T06:54:23.707Z,62.32
2023-04-13T06:55:23.926Z,62.72
2023-04-13T06:56:24.096Z,62.79
2023-04-13T06:57:24.238Z,64.12
2023-04-13T06:58:24.487Z,62.79
2023-04-13T06:59:24.613Z,63.40
2023-04-13T07:00:30.233Z,62.66
2023-04-13T07:01:26.053Z,61.44
2023-04-13T07:02:25.212Z,62.46
2023-04-13T07:03:25.538Z,61.95
2023-04-13T07:04:28.069Z,62.16
2023-04-13T07:05:25.681Z,61.44
2023-04-13T07:06:25.854Z,61.75
2023-04-13T07:07:26.044Z,62.56
2023-04-13T07:08:26.251Z,60.83
2023-04-13T07:09:26.410Z,61.24
2023-04-13T07:10:26.634Z,61.34
2023-04-13T07:11:26.757Z,60.83
2023-04-13T07:12:27.046Z,61.14
2023-04-13T07:13:27.115Z,60.94
2023-04-13T07:14:27.295Z,61.75
2023-04-13T07:15:27.445Z,62.02
2023-04-13T07:16:27.781Z,61.93
2023-04-13T07:17:27.904Z,61.11
2023-04-13T07:18:28.005Z,61.82
2023-04-13T07:19:28.157Z,60.60
2023-04-13T07:20:28.312Z,61.59
2023-04-13T07:21:28.483Z,60.07
2023-04-13T07:22:28.641Z,60.98
2023-04-13T07:23:28.814Z,60.37
2023-04-13T07:24:30.149Z,59.94
2023-04-13T07:25:29.165Z,60.14
2023-04-13T07:26:29.361Z,60.21
2023-04-13T07:27:29.536Z,58.59
2023-04-13T07:28:29.691Z,58.76
2023-04-13T07:29:30.057Z,58.97
2023-04-13T07:30:30.045Z,59.55
2023-04-13T07:31:30.246Z,59.22
2023-04-13T07:32:31.493Z,59.01
2023-04-13T07:33:30.546Z,59.39
2023-04-13T07:34:30.748Z,57.47
2023-04-13T07:35:30.954Z,58.76
2023-04-13T07:36:31.123Z,57.95
2023-04-13T07:37:31.235Z,56.10
2023-04-13T07:38:31.417Z,55.69
2023-04-13T07:39:31.567Z,56.07
2023-04-13T07:40:31.740Z,54.56
2023-04-13T07:41:32.025Z,54.33
2023-04-13T07:42:32.106Z,55.32
2023-04-13T07:43:32.276Z,55.39
2023-04-13T07:44:32.457Z,56.37
2023-04-13T07:45:32.594Z,52.94
2023-04-13T07:46:32.803Z,53.72
2023-04-13T07:47:32.940Z,53.52
2023-04-13T07:48:33.098Z,52.11
2023-04-13T07:49:33.275Z,51.51
2023-04-13T07:50:33.439Z,51.20
2023-04-13T07:51:33.611Z,51.10
2023-04-13T07:52:33.797Z,51.71
2023-04-13T07:53:33.982Z,52.22
2023-04-13T07:54:34.130Z,51.89
2023-04-13T07:55:35.120Z,52.39
2023-04-13T07:56:34.463Z,50.65
2023-04-13T07:57:34.668Z,50.96
2023-04-13T07:58:34.822Z,49.22
2023-04-13T07:59:34.988Z,50.63
2023-04-13T08:00:35.140Z,50.20
2023-04-13T08:01:35.308Z,50.71
2023-04-13T08:02:35.731Z,50.68
2023-04-13T08:03:35.721Z,50.28
2023-04-13T08:04:36.130Z,49.37
2023-04-13T08:05:36.099Z,48.55
2023-04-13T08:06:36.192Z,49.85
2023-04-13T08:07:36.393Z,48.43
2023-04-13T08:08:36.786Z,48.93
2023-04-13T08:09:36.723Z,48.80
2023-04-13T08:10:36.896Z,48.78
2023-04-13T08:11:37.138Z,47.63
2023-04-13T08:12:37.268Z,45.30
2023-04-13T08:13:37.492Z,44.88
2023-04-13T08:14:37.654Z,43.48
2023-04-13T08:15:37.817Z,43.48
2023-04-13T08:16:38.034Z,42.60
2023-04-13T08:17:38.226Z,43.02
2023-04-13T08:18:38.388Z,43.64
2023-04-13T08:19:38.548Z,43.56
2023-04-13T08:20:38.678Z,44.68
2023-04-13T08:21:38.838Z,44.79
2023-04-13T08:22:39.011Z,45.49
2023-04-13T08:23:39.196Z,44.51
2023-04-13T08:24:39.361Z,45.51
2023-04-13T08:25:39.549Z,44.31
2023-04-13T08:26:39.713Z,45.31
2023-04-13T08:27:39.884Z,44.71
2023-04-13T08:28:40.061Z,46.31
2023-04-13T08:29:40.224Z,45.21
2023-04-13T08:30:40.389Z,44.71
2023-04-13T08:31:40.797Z,44.93
2023-04-13T08:32:40.880Z,45.03
2023-04-13T08:33:40.919Z,45.73
2023-04-13T08:34:41.077Z,45.10
2023-04-13T08:35:41.242Z,46.72
2023-04-13T08:36:41.416Z,45.29
2023-04-13T08:37:41.580Z,44.18
2023-04-13T08:38:41.797Z,44.28
2023-04-13T08:39:41.924Z,44.59
2023-04-13T08:40:42.103Z,44.89
2023-04-13T08:41:42.297Z,44.89
2023-04-13T08:42:42.427Z,45.79
2023-04-13T08:43:42.627Z,46.39
2023-04-13T08:44:42.821Z,46.09
2023-04-13T08:45:42.986Z,46.19
2023-04-13T08:46:43.143Z,44.89
2023-04-13T08:47:43.322Z,44.20
2023-04-13T08:48:53.666Z,44.00
2023-04-13T08:49:44.654Z,45.33
2023-04-13T08:50:43.822Z,44.23
2023-04-13T08:51:44.013Z,44.85
2023-04-13T08:52:44.189Z,44.55
2023-04-13T08:53:44.376Z,44.65
2023-04-13T08:54:44.536Z,44.97
2023-04-13T08:55:44.704Z,46.08
2023-04-13T08:56:46.996Z,45.78
2023-04-13T08:57:45.020Z,45.67
2023-04-13T08:58:45.188Z,45.78
2023-04-13T08:59:45.353Z,45.57
2023-04-13T09:00:45.519Z,45.07
2023-04-13T09:01:45.808Z,45.55
2023-04-13T09:03:46.192Z,44.73
2023-04-13T09:04:46.351Z,44.43
2023-04-13T09:05:46.448Z,43.30
2023-04-13T09:06:46.597Z,42.38
2023-04-13T09:07:46.778Z,43.04
2023-04-13T09:08:46.984Z,42.38
2023-04-13T09:09:47.148Z,41.61
2023-04-13T09:10:47.312Z,40.06
2023-04-13T09:11:49.928Z,40.81
2023-04-13T09:12:47.650Z,39.36
2023-04-13T09:13:47.867Z,37.21
2023-04-13T09:14:48.024Z,36.58
2023-04-13T09:15:48.192Z,35.46
2023-04-13T09:16:48.409Z,34.92
2023-04-13T09:17:48.552Z,33.55
2023-04-13T09:18:48.707Z,33.85
2023-04-13T09:19:49.048Z,34.86
2023-04-13T09:20:49.055Z,34.76
2023-04-13T09:21:49.196Z,34.43
2023-04-13T09:22:49.394Z,32.70
2023-04-13T09:23:49.548Z,31.23
2023-04-13T09:24:49.777Z,31.26
2023-04-13T09:25:49.916Z,32.89
2023-04-13T09:26:50.117Z,33.14
2023-04-13T09:27:50.327Z,34.66
2023-04-13T09:28:50.423Z,34.59
2023-04-13T09:29:50.626Z,35.61
2023-04-13T09:30:50.788Z,36.09
2023-04-13T09:31:50.966Z,35.38
2023-04-13T09:32:51.156Z,33.47
2023-04-13T09:33:51.369Z,34.18
2023-04-13T09:34:51.470Z,33.97
2023-04-13T09:35:51.653Z,33.05
2023-04-13T09:36:54.523Z,34.11
2023-04-13T09:37:52.025Z,33.18
2023-04-13T09:38:52.197Z,31.99
2023-04-13T09:39:52.358Z,31.90
2023-04-13T09:40:52.519Z,33.02
2023-04-13T09:41:52.685Z,33.55
2023-04-13T09:42:52.876Z,33.47
2023-04-13T09:43:53.065Z,32.84
2023-04-13T09:44:53.230Z,32.28
2023-04-13T09:45:53.467Z,32.23
2023-04-13T09:46:53.629Z,31.28
2023-04-13T09:47:53.806Z,29.27
2023-04-13T09:48:53.949Z,28.86
2023-04-13T09:49:54.133Z,28.97
2023-04-13T09:50:54.280Z,29.09
2023-04-13T09:51:54.471Z,29.77
2023-04-13T09:52:54.640Z,30.16
2023-04-13T09:53:54.824Z,30.33
2023-04-13T09:54:55.004Z,29.62
2023-04-13T09:55:55.184Z,29.61
2023-04-13T09:56:55.372Z,29.48
2023-04-13T09:57:55.573Z,29.20
2023-04-13T09:58:55.753Z,28.75
2023-04-13T09:59:55.902Z,29.06
2023-04-13T10:00:56.054Z,29.66
2023-04-13T10:01:56.325Z,31.23
2023-04-13T10:02:56.557Z,30.23
2023-04-13T10:03:56.673Z,31.01
2023-04-13T10:04:56.859Z,27.94
2023-04-13T10:06:00.005Z,28.85
2023-04-13T10:06:57.178Z,29.66
2023-04-13T10:07:57.317Z,29.90
2023-04-13T10:08:57.444Z,30.32
2023-04-13T10:09:57.704Z,30.63
2023-04-13T10:10:57.807Z,31.85
2023-04-13T10:11:57.994Z,31.85
2023-04-13T10:12:58.160Z,30.57
2023-04-13T10:13:58.614Z,31.37
2023-04-13T10:14:58.517Z,31.68
2023-04-13T10:16:00.101Z,31.99
2023-04-13T10:16:58.850Z,31.60
2023-04-13T10:17:59.075Z,32.11
2023-04-13T10:18:59.328Z,32.51
2023-04-13T10:19:59.352Z,31.53
2023-04-13T10:20:59.535Z,32.24
2023-04-13T10:21:59.745Z,32.74
2023-04-13T10:22:59.901Z,33.55
2023-04-13T10:24:00.394Z,34.45
2023-04-13T10:25:00.292Z,34.36
2023-04-13T10:26:00.494Z,34.36
2023-04-13T10:27:00.677Z,34.38
2023-04-13T10:28:00.821Z,34.18
2023-04-13T10:29:01.041Z,33.70
2023-04-13T10:30:01.113Z,34.11
2023-04-13T10:31:01.246Z,34.51
2023-04-13T10:32:01.513Z,34.31
2023-04-13T10:33:01.599Z,34.33
2023-04-13T10:34:01.951Z,34.23
2023-04-13T10:35:02.003Z,34.64
2023-04-13T10:36:02.132Z,34.55
2023-04-13T10:37:02.283Z,35.74
2023-04-13T10:38:02.458Z,35.44
2023-04-13T10:39:02.619Z,35.94
2023-04-13T10:40:02.831Z,35.36
2023-04-13T10:41:02.964Z,36.16
2023-04-13T10:42:03.192Z,36.36
2023-04-13T10:43:03.304Z,36.36
2023-04-13T10:44:03.461Z,36.26
2023-04-13T10:45:03.626Z,35.96
2023-04-13T10:46:03.793Z,35.86
2023-04-13T10:47:04.079Z,35.86
2023-04-13T10:48:04.225Z,34.48
2023-04-13T10:49:04.337Z,34.98
2023-04-13T10:50:04.482Z,34.99
2023-04-13T10:51:04.657Z,34.99
2023-04-13T10:52:04.815Z,35.31
2023-04-13T10:53:05.206Z,34.71
2023-04-13T10:54:05.165Z,36.33
2023-04-13T10:55:05.326Z,36.05
2023-04-13T10:56:05.505Z,36.44
2023-04-13T10:57:05.694Z,37.05
2023-04-13T10:58:05.872Z,37.46
2023-04-13T10:59:06.024Z,37.37
2023-04-13T11:00:06.211Z,38.17
2023-04-13T11:01:06.380Z,37.96
2023-04-13T11:02:06.682Z,37.27
2023-04-13T11:03:06.958Z,37.07
2023-04-13T11:04:09.893Z,36.57
2023-04-13T11:05:08.070Z,36.57
2023-04-13T11:06:07.248Z,36.57
2023-04-13T11:07:07.413Z,37.07
2023-04-13T11:08:07.609Z,37.57
2023-04-13T11:09:08.490Z,37.46
2023-04-13T11:10:07.983Z,38.09
2023-04-13T11:11:08.176Z,38.09
2023-04-13T11:12:08.351Z,38.79
2023-04-13T11:13:08.502Z,38.27
2023-04-13T11:14:08.672Z,38.37
2023-04-13T11:15:08.879Z,37.37
2023-04-13T11:16:09.028Z,38.17
2023-04-13T11:17:09.251Z,38.27
2023-04-13T11:18:09.370Z,37.45
2023-04-13T11:19:09.560Z,37.05
2023-04-13T11:20:09.721Z,37.55
2023-04-13T11:21:09.886Z,37.73
2023-04-13T11:22:13.066Z,37.93
2023-04-13T11:23:10.228Z,37.53
2023-04-13T11:24:10.413Z,38.11
2023-04-13T11:25:10.596Z,37.92
2023-04-13T11:26:10.775Z,37.92
2023-04-13T11:27:10.937Z,37.59
2023-04-13T11:28:11.118Z,36.49
2023-04-13T11:29:11.272Z,36.19
2023-04-13T11:30:11.449Z,35.80
2023-04-13T11:31:11.925Z,36.47
2023-04-13T11:32:11.838Z,34.26
2023-04-13T11:33:12.052Z,35.96
2023-04-13T11:34:12.147Z,34.86
2023-04-13T11:35:12.324Z,35.36
2023-04-13T11:36:12.508Z,35.14
2023-04-13T11:37:12.656Z,34.76
2023-04-13T11:38:12.853Z,34.36
2023-04-13T11:39:13.031Z,35.36
2023-04-13T11:40:13.224Z,35.86
2023-04-13T11:41:16.783Z,35.76
2023-04-13T11:42:13.591Z,36.26
2023-04-13T11:43:13.703Z,35.46
2023-04-13T11:44:13.910Z,35.16
2023-04-13T11:45:14.067Z,34.98
2023-04-13T11:46:14.347Z,35.49
2023-04-13T11:47:14.428Z,35.80
2023-04-13T11:48:14.628Z,36.01
2023-04-13T11:49:14.784Z,36.33
2023-04-13T11:50:15.807Z,36.93
2023-04-13T11:51:15.129Z,37.53
2023-04-13T11:52:15.304Z,37.25
2023-04-13T11:53:15.440Z,37.15
2023-04-13T11:54:15.618Z,37.77
2023-04-13T11:55:23.464Z,38.27
2023-04-13T11:56:17.009Z,38.99
2023-04-13T11:57:16.174Z,39.09
2023-04-13T11:58:16.356Z,38.39
2023-04-13T11:59:16.555Z,38.59
2023-04-13T12:00:16.707Z,39.09
2023-04-13T12:01:25.163Z,38.59
2023-04-13T12:02:22.963Z,39.18
2023-04-13T12:04:17.625Z,38.39
2023-04-13T12:05:17.932Z,37.80
2023-04-13T12:06:17.980Z,37.80
2023-04-13T12:07:18.183Z,37.72
2023-04-13T12:08:18.636Z,39.54
2023-04-13T12:09:20.996Z,39.54
2023-04-13T12:10:23.140Z,39.84
2023-04-13T12:13:28.596Z,40.05
2023-04-13T12:14:45.988Z,39.45
2023-04-13T12:15:36.625Z,39.25
2023-04-13T12:16:23.220Z,39.45
2023-04-13T12:18:23.613Z,39.93
2023-04-13T12:19:23.067Z,39.23
2023-04-13T12:20:20.791Z,39.61
2023-04-13T12:21:20.861Z,39.51
2023-04-13T12:22:20.641Z,38.49
2023-04-13T12:23:23.444Z,38.59
2023-04-13T12:24:20.916Z,38.39
2023-04-13T12:25:21.130Z,37.68
2023-04-13T12:26:59.284Z,38.17
2023-04-13T12:27:22.370Z,37.96
2023-04-13T12:28:21.564Z,38.47
2023-04-13T12:29:21.700Z,38.15
2023-04-13T12:30:21.916Z,37.35
2023-04-13T12:31:22.110Z,37.65
2023-04-13T12:32:22.263Z,37.35
2023-04-13T12:33:22.424Z,37.43
2023-04-13T12:34:22.591Z,37.23
2023-04-13T12:35:22.823Z,37.33
2023-04-13T12:36:22.964Z,36.01
2023-04-13T12:37:23.140Z,36.01
2023-04-13T12:38:23.284Z,36.91
2023-04-13T12:39:23.454Z,36.63
2023-04-13T12:40:23.659Z,36.15
2023-04-13T12:41:23.811Z,37.75
2023-04-13T12:42:23.969Z,38.15
2023-04-13T12:43:24.132Z,37.43
2023-04-13T12:44:24.296Z,38.03
2023-04-13T12:45:24.494Z,37.01
2023-04-13T12:46:24.683Z,36.83
2023-04-13T12:47:24.927Z,36.41
2023-04-13T12:48:24.990Z,36.71
2023-04-13T12:49:25.168Z,36.71
2023-04-13T12:50:25.348Z,36.99
2023-04-13T12:51:25.488Z,36.79
2023-04-13T12:52:25.665Z,36.19
2023-04-13T12:53:25.865Z,36.49
2023-04-13T12:54:26.038Z,36.99
2023-04-13T12:55:26.213Z,37.01
2023-04-13T12:56:26.382Z,37.41
2023-04-13T12:57:26.553Z,37.61
2023-04-13T12:58:26.740Z,37.01
2023-04-13T12:59:26.944Z,37.03